Time;durP1;ratioP1;P1;durP2;ratioP2;P2;SDS_P1;SDS_P2;PMS_P1;PMS_P2;Temp;Humidity;BMP_temperature;BMP_pressure;BME280_temperature;BME280_humidity;BME280_pressure;Samples;Min_cycle;Max_cycle;Signal;HPM_P1;HPM_P2
2024/04/13 00:02:39;;;;;;;7.10;5.80;;;12.50;88.90;;;;;;6777686;26;20471;-62
2024/04/13 00:05:41;;;;;;;8.37;5.67;;;12.50;88.80;;;;;;6777217;26;20509;-61
2024/04/13 00:08:43;;;;;;;6.60;5.40;;;12.40;88.60;;;;;;6775862;26;20463;-63
2024/04/13 00:11:45;;;;;;;9.50;5.70;;;12.40;88.60;;;;;;6776092;26;21012;-64
2024/04/13 00:14:47;;;;;;;8.33;5.40;;;12.30;88.80;;;;;;6775923;26;20484;-63
2024/04/13 00:17:49;;;;;;;6.67;5.40;;;12.30;88.90;;;;;;6775738;26;21058;-64
2024/04/13 00:20:50;;;;;;;10.27;5.70;;;12.20;88.90;;;;;;6775686;26;20546;-63
2024/04/13 00:23:52;;;;;;;9.33;6.00;;;12.20;88.80;;;;;;6775445;26;20545;-63
2024/04/13 00:26:55;;;;;;;9.17;5.70;;;12.10;88.90;;;;;;6774355;26;20563;-66
2024/04/13 00:29:58;;;;;;;8.43;5.90;;;12.10;89.00;;;;;;6776191;26;20459;-63
2024/04/13 00:33:00;;;;;;;6.43;5.83;;;12.10;88.90;;;;;;6775066;26;20503;-63
2024/04/13 00:36:05;;;;;;;7.47;5.47;;;12.20;89.10;;;;;;6775315;26;20995;-62
2024/04/13 00:39:08;;;;;;;8.60;5.00;;;12.20;88.80;;;;;;6773678;26;20471;-63
2024/04/13 00:42:10;;;;;;;6.57;5.30;;;12.10;88.40;;;;;;6773530;26;20550;-63
2024/04/13 00:45:12;;;;;;;7.93;5.40;;;12.00;88.40;;;;;;6775911;26;20861;-63
2024/04/13 00:48:25;;;;;;;7.63;5.40;;;11.90;88.60;;;;;;6775296;26;20532;-63
2024/04/13 00:51:29;;;;;;;6.80;5.23;;;11.90;89.00;;;;;;6775183;26;20500;-63
2024/04/13 00:54:34;;;;;;;7.90;6.00;;;11.80;89.10;;;;;;6775709;26;20451;-63
2024/04/13 00:57:36;;;;;;;6.70;5.33;;;11.80;89.40;;;;;;6776060;26;20463;-64
2024/04/13 01:00:44;;;;;;;7.00;5.53;;;11.70;89.30;;;;;;6774014;26;20574;-62
2024/04/13 01:03:48;;;;;;;7.50;6.00;;;11.60;89.50;;;;;;6774636;26;20574;-62
2024/04/13 01:06:50;;;;;;;16.17;6.07;;;11.50;89.60;;;;;;6775032;26;20495;-62
2024/04/13 01:09:54;;;;;;;6.33;5.20;;;11.60;90.00;;;;;;6776527;26;20484;-62
2024/04/13 01:12:57;;;;;;;7.87;6.00;;;11.60;90.20;;;;;;6778518;26;20529;-62
2024/04/13 01:15:59;;;;;;;6.97;6.00;;;11.50;90.60;;;;;;6777850;26;20475;-62
2024/04/13 01:19:01;;;;;;;6.73;5.10;;;11.60;90.70;;;;;;6779156;26;20824;-63
2024/04/13 01:22:04;;;;;;;6.40;5.20;;;11.50;90.60;;;;;;6775399;26;20454;-62
2024/04/13 01:25:06;;;;;;;5.80;5.30;;;11.50;91.00;;;;;;6777582;26;20459;-63
2024/04/13 01:28:09;;;;;;;8.23;5.40;;;11.60;91.50;;;;;;6777896;26;20567;-62
2024/04/13 01:31:11;;;;;;;9.03;6.10;;;11.50;91.70;;;;;;6777294;26;20503;-64
2024/04/13 01:34:13;;;;;;;8.67;5.63;;;11.60;91.80;;;;;;6775164;26;20539;-63
2024/04/13 01:37:15;;;;;;;7.17;5.60;;;11.50;92.10;;;;;;6774787;26;21038;-63
2024/04/13 01:40:17;;;;;;;8.17;5.63;;;11.50;92.50;;;;;;6772773;26;20461;-63
2024/04/13 01:43:18;;;;;;;7.97;6.03;;;11.50;92.40;;;;;;6776089;26;20475;-62
2024/04/13 01:46:20;;;;;;;10.07;6.97;;;11.50;92.50;;;;;;6781756;26;20534;-63
2024/04/13 01:49:22;;;;;;;9.73;6.23;;;11.50;92.50;;;;;;6778002;26;20515;-64
2024/04/13 01:52:24;;;;;;;8.53;5.67;;;11.50;92.40;;;;;;6778893;26;20566;-64
2024/04/13 01:55:26;;;;;;;6.63;5.93;;;11.50;92.30;;;;;;6781398;26;20515;-65
2024/04/13 01:58:29;;;;;;;7.90;5.90;;;11.50;92.20;;;;;;6781155;26;20495;-65
2024/04/13 02:01:31;;;;;;;8.90;5.67;;;11.50;92.00;;;;;;6779292;26;20447;-63
2024/04/13 02:04:33;;;;;;;7.83;6.13;;;11.40;92.10;;;;;;6778268;26;20462;-64
2024/04/13 02:07:36;;;;;;;6.60;5.90;;;11.40;92.00;;;;;;6777977;26;20491;-64
2024/04/13 02:10:39;;;;;;;8.10;5.13;;;11.30;91.90;;;;;;6777977;26;20463;-64
2024/04/13 02:13:41;;;;;;;7.33;5.70;;;11.30;92.00;;;;;;6776238;26;20505;-66
2024/04/13 02:16:42;;;;;;;7.27;5.33;;;11.30;91.70;;;;;;6778234;26;20950;-64
2024/04/13 02:19:46;;;;;;;6.60;5.33;;;11.20;91.80;;;;;;6778077;26;20467;-64
2024/04/13 02:22:47;;;;;;;9.53;5.77;;;11.20;91.90;;;;;;6779190;26;20499;-64
2024/04/13 02:25:50;;;;;;;6.27;5.30;;;11.20;92.00;;;;;;6783754;26;20502;-64
2024/04/13 02:28:52;;;;;;;8.37;5.17;;;11.20;91.90;;;;;;6790490;26;20546;-64
2024/04/13 02:31:54;;;;;;;6.00;5.40;;;11.20;92.00;;;;;;6786053;26;20515;-64
2024/04/13 02:34:56;;;;;;;9.30;5.97;;;11.20;92.00;;;;;;6785859;26;20455;-64
2024/04/13 02:37:58;;;;;;;8.07;5.33;;;11.10;92.10;;;;;;6786682;26;20451;-64
2024/04/13 02:41:00;;;;;;;5.83;5.23;;;11.10;92.20;;;;;;6786166;26;20471;-64
2024/04/13 02:44:02;;;;;;;11.77;6.00;;;11.10;92.20;;;;;;6782911;26;20524;-64
2024/04/13 02:47:04;;;;;;;6.30;5.67;;;11.10;92.20;;;;;;6779283;26;20507;-64
2024/04/13 02:50:07;;;;;;;6.53;5.47;;;11.00;92.30;;;;;;6777750;26;20498;-64
2024/04/13 02:53:08;;;;;;;7.77;5.30;;;11.10;92.30;;;;;;6775822;26;20748;-64
2024/04/13 02:56:10;;;;;;;6.33;5.20;;;11.10;92.30;;;;;;6776497;26;20578;-65
2024/04/13 02:59:13;;;;;;;6.17;5.33;;;11.00;92.10;;;;;;6779747;26;20558;-63
2024/04/13 03:02:15;;;;;;;9.00;5.33;;;11.10;92.00;;;;;;6778391;26;20455;-63
2024/04/13 03:05:17;;;;;;;6.63;5.93;;;11.00;92.50;;;;;;6777803;26;20885;-63
2024/04/13 03:08:19;;;;;;;6.80;5.93;;;11.10;92.40;;;;;;6777496;26;20491;-63
2024/04/13 03:11:21;;;;;;;8.67;5.53;;;11.00;92.20;;;;;;6778072;26;20508;-64
2024/04/13 03:14:23;;;;;;;5.43;4.93;;;11.00;92.00;;;;;;6777342;26;20943;-64
2024/04/13 03:17:25;;;;;;;5.93;5.33;;;11.00;92.00;;;;;;6778170;26;20467;-64
2024/04/13 03:20:27;;;;;;;6.87;6.03;;;10.90;92.30;;;;;;6781236;26;20923;-65
2024/04/13 03:23:32;;;;;;;9.07;6.07;;;10.90;92.50;;;;;;6788450;26;20459;-64
2024/04/13 03:26:34;;;;;;;7.83;6.00;;;10.80;92.50;;;;;;6788876;26;20443;-64
2024/04/13 03:29:36;;;;;;;6.93;6.23;;;10.70;92.70;;;;;;6778397;26;20471;-63
2024/04/13 03:32:38;;;;;;;6.93;6.00;;;10.70;92.80;;;;;;6775596;26;20971;-64
2024/04/13 03:35:39;;;;;;;8.30;5.53;;;10.70;93.10;;;;;;6778957;26;20517;-64
2024/04/13 03:38:41;;;;;;;8.10;5.53;;;10.60;93.00;;;;;;6781273;26;20534;-64
2024/04/13 03:41:43;;;;;;;11.27;6.50;;;10.50;93.20;;;;;;6776889;26;20561;-64
2024/04/13 03:44:45;;;;;;;7.10;5.60;;;10.50;93.30;;;;;;6777590;26;20456;-63
2024/04/13 03:47:47;;;;;;;8.60;6.80;;;10.50;93.50;;;;;;6777047;26;20455;-63
2024/04/13 03:50:49;;;;;;;8.27;6.53;;;10.40;93.80;;;;;;6778689;26;20495;-64
2024/04/13 03:53:50;;;;;;;9.70;7.03;;;10.40;94.00;;;;;;6777552;26;20455;-64
2024/04/13 03:56:52;;;;;;;11.17;7.03;;;10.30;94.10;;;;;;6775237;26;20524;-64
2024/04/13 03:59:54;;;;;;;7.67;6.40;;;10.30;94.20;;;;;;6776571;26;21033;-64
2024/04/13 04:02:56;;;;;;;10.23;6.23;;;10.30;94.20;;;;;;6776831;26;20463;-64
2024/04/13 04:05:58;;;;;;;6.80;5.87;;;10.30;94.30;;;;;;6773770;26;20500;-63
2024/04/13 04:09:01;;;;;;;10.40;6.83;;;10.30;94.10;;;;;;6775985;26;20542;-63
2024/04/13 04:12:04;;;;;;;10.07;6.10;;;10.30;94.10;;;;;;6775679;26;20451;-63
2024/04/13 04:15:06;;;;;;;8.23;7.13;;;10.30;94.20;;;;;;6775643;26;20455;-63
2024/04/13 04:18:08;;;;;;;8.57;7.47;;;10.30;94.20;;;;;;6775378;26;20869;-64
2024/04/13 04:21:10;;;;;;;13.33;6.73;;;10.40;94.20;;;;;;6775132;26;20488;-64
2024/04/13 04:24:11;;;;;;;10.97;6.90;;;10.30;94.30;;;;;;6775128;26;20515;-64
2024/04/13 04:27:13;;;;;;;8.30;7.10;;;10.40;94.30;;;;;;6775310;26;20507;-65
2024/04/13 04:30:15;;;;;;;7.50;6.60;;;10.30;94.30;;;;;;6773598;26;20763;-63
2024/04/13 04:33:17;;;;;;;10.60;7.70;;;10.30;94.40;;;;;;6775335;26;20455;-61
2024/04/13 04:36:19;;;;;;;7.13;5.93;;;10.20;94.30;;;;;;6775637;26;20841;-62
2024/04/13 04:39:21;;;;;;;8.03;6.60;;;10.10;94.40;;;;;;6775329;26;20538;-63
2024/04/13 04:42:24;;;;;;;10.43;6.77;;;10.10;94.30;;;;;;6773562;26;20452;-62
2024/04/13 04:45:26;;;;;;;8.90;7.07;;;10.00;94.20;;;;;;6776981;26;20496;-63
2024/04/13 04:48:28;;;;;;;10.53;7.77;;;10.00;94.70;;;;;;6777369;26;20459;-63
2024/04/13 04:51:30;;;;;;;8.80;6.50;;;10.10;94.90;;;;;;6777054;26;20448;-63
2024/04/13 04:54:32;;;;;;;9.50;7.17;;;10.10;94.90;;;;;;6775837;26;20500;-63
2024/04/13 04:57:34;;;;;;;12.30;7.60;;;10.10;95.30;;;;;;6775159;26;20487;-63
2024/04/13 05:00:36;;;;;;;9.80;6.90;;;10.20;95.50;;;;;;6772771;26;20444;-62
2024/04/13 05:03:38;;;;;;;7.17;6.47;;;10.20;95.60;;;;;;6773829;26;20550;-62
2024/04/13 05:06:40;;;;;;;9.17;6.93;;;10.30;95.60;;;;;;6773994;26;20463;-63
2024/04/13 05:09:42;;;;;;;11.50;7.47;;;10.50;95.60;;;;;;6774258;26;20459;-62
2024/04/13 05:12:44;;;;;;;8.10;6.73;;;10.60;95.60;;;;;;6775402;26;20499;-62
2024/04/13 05:15:48;;;;;;;8.37;7.17;;;10.70;95.60;;;;;;6782129;26;20456;-63
2024/04/13 05:18:50;;;;;;;9.40;6.50;;;10.90;95.70;;;;;;6775869;26;20440;-62
2024/04/13 05:21:52;;;;;;;6.63;6.03;;;11.10;95.40;;;;;;6785714;26;20544;-65
2024/04/13 05:24:54;;;;;;;8.90;7.47;;;11.30;94.30;;;;;;6783672;26;20548;-64
2024/04/13 05:27:56;;;;;;;9.23;7.40;;;11.40;93.70;;;;;;6783259;26;20542;-63
2024/04/13 05:31:01;;;;;;;10.67;7.80;;;11.60;93.00;;;;;;6776551;26;20507;-65
2024/04/13 05:34:03;;;;;;;8.30;6.50;;;11.70;92.20;;;;;;6776203;26;20980;-64
2024/04/13 05:37:05;;;;;;;9.80;8.07;;;11.80;91.70;;;;;;6775042;26;20443;-65
2024/04/13 05:40:07;;;;;;;10.47;7.60;;;11.90;91.30;;;;;;6773893;26;20814;-64
2024/04/13 05:43:09;;;;;;;9.83;7.40;;;12.10;91.20;;;;;;6773236;26;20503;-63
2024/04/13 05:46:16;;;;;;;9.37;7.73;;;12.20;90.50;;;;;;6773002;26;20439;-62
2024/04/13 05:49:18;;;;;;;17.93;8.50;;;12.30;89.90;;;;;;6772783;26;20496;-63
2024/04/13 05:52:20;;;;;;;10.80;8.33;;;12.30;89.90;;;;;;6772765;26;20508;-64
2024/04/13 05:55:22;;;;;;;11.87;9.13;;;12.50;89.70;;;;;;6772381;26;20507;-63
2024/04/13 05:58:24;;;;;;;13.47;8.40;;;12.70;89.30;;;;;;6772562;26;20943;-65
2024/04/13 06:01:25;;;;;;;9.80;8.40;;;12.80;89.00;;;;;;6772550;26;20507;-65
2024/04/13 06:04:28;;;;;;;12.97;8.50;;;13.00;88.50;;;;;;6772009;26;20491;-64
2024/04/13 06:07:30;;;;;;;16.40;9.20;;;13.20;87.70;;;;;;6771970;26;20558;-65
2024/04/13 06:10:32;;;;;;;9.63;8.40;;;13.30;87.00;;;;;;6771622;26;20447;-63
2024/04/13 06:13:33;;;;;;;10.77;7.90;;;13.50;86.80;;;;;;6771653;26;20844;-63
2024/04/13 06:16:35;;;;;;;14.83;9.00;;;13.70;86.40;;;;;;6772127;26;20829;-65
2024/04/13 06:19:37;;;;;;;11.57;9.13;;;13.90;84.80;;;;;;6771770;26;20766;-64
2024/04/13 06:22:39;;;;;;;11.27;8.03;;;14.00;85.30;;;;;;6771677;26;20943;-64
2024/04/13 06:25:45;;;;;;;13.40;9.07;;;14.30;84.60;;;;;;6771637;26;20558;-65
2024/04/13 06:28:49;;;;;;;11.30;8.23;;;14.50;83.80;;;;;;6772755;26;20838;-65
2024/04/13 06:31:50;;;;;;;12.77;8.47;;;14.60;82.30;;;;;;6774550;26;20467;-65
2024/04/13 06:34:52;;;;;;;11.73;8.17;;;14.60;81.60;;;;;;6776531;26;20506;-65
2024/04/13 06:37:54;;;;;;;12.70;8.30;;;14.70;82.00;;;;;;6776148;26;20522;-65
2024/04/13 06:40:56;;;;;;;11.00;7.27;;;14.80;82.50;;;;;;6778989;26;20519;-63
2024/04/13 06:44:02;;;;;;;9.60;8.13;;;14.90;82.00;;;;;;6775759;26;20462;-62
2024/04/13 06:47:05;;;;;;;14.73;8.87;;;15.10;81.50;;;;;;6775796;26;20551;-62
2024/04/13 06:50:07;;;;;;;8.70;7.70;;;15.40;81.30;;;;;;6775602;26;20511;-63
2024/04/13 06:53:08;;;;;;;10.20;8.57;;;15.50;80.70;;;;;;6775558;26;20558;-63
2024/04/13 06:56:11;;;;;;;10.67;8.77;;;15.70;80.40;;;;;;6775270;26;21076;-64
2024/04/13 06:59:13;;;;;;;13.00;9.30;;;15.90;79.60;;;;;;6774219;26;20463;-63
2024/04/13 07:02:16;;;;;;;10.07;8.80;;;16.00;79.40;;;;;;6775785;26;20559;-64
2024/04/13 07:05:18;;;;;;;13.77;8.70;;;16.20;78.70;;;;;;6773889;26;20555;-64
2024/04/13 07:08:20;;;;;;;11.97;9.30;;;16.40;78.30;;;;;;6775789;26;20511;-63
2024/04/13 07:11:22;;;;;;;11.67;9.57;;;16.40;78.10;;;;;;6776667;26;20505;-63
2024/04/13 07:14:24;;;;;;;12.43;9.57;;;16.30;78.50;;;;;;6777251;26;20456;-63
2024/04/13 07:17:25;;;;;;;12.73;9.60;;;16.40;78.50;;;;;;6776136;26;20494;-63
2024/04/13 07:20:27;;;;;;;18.53;9.87;;;16.30;78.80;;;;;;6776158;26;20443;-63
2024/04/13 07:23:29;;;;;;;14.23;9.63;;;16.50;79.00;;;;;;6775120;26;20471;-63
2024/04/13 07:26:31;;;;;;;15.10;9.83;;;16.60;77.80;;;;;;6775155;26;20518;-64
2024/04/13 07:29:33;;;;;;;11.83;8.80;;;16.60;78.20;;;;;;6775929;26;20485;-65
2024/04/13 07:32:35;;;;;;;13.20;10.30;;;16.80;78.00;;;;;;6775869;26;20506;-63
2024/04/13 07:35:37;;;;;;;10.97;8.60;;;17.10;77.00;;;;;;6775389;26;20504;-64
2024/04/13 07:38:39;;;;;;;13.43;8.03;;;17.30;76.10;;;;;;6775366;26;20845;-65
2024/04/13 07:41:41;;;;;;;10.17;7.57;;;17.50;75.20;;;;;;6775599;26;20504;-65
2024/04/13 07:44:45;;;;;;;11.37;7.90;;;17.70;73.70;;;;;;6776994;26;20447;-66
2024/04/13 07:47:47;;;;;;;8.20;7.40;;;17.80;73.30;;;;;;6775631;26;21004;-66
2024/04/13 07:50:49;;;;;;;11.10;7.70;;;17.80;73.00;;;;;;6775785;26;20495;-66
2024/04/13 07:53:51;;;;;;;12.60;8.80;;;17.80;73.00;;;;;;6781247;26;20865;-66
2024/04/13 07:56:52;;;;;;;10.70;7.90;;;17.80;73.40;;;;;;6775494;26;20798;-66
2024/04/13 07:59:54;;;;;;;10.90;8.17;;;18.00;73.00;;;;;;6775438;26;20447;-64
2024/04/13 08:02:56;;;;;;;13.07;7.60;;;18.20;73.10;;;;;;6775332;26;20532;-64
2024/04/13 08:05:58;;;;;;;9.60;8.47;;;18.40;72.30;;;;;;6774658;26;20548;-65
2024/04/13 08:09:00;;;;;;;10.93;7.03;;;18.60;72.00;;;;;;6774381;26;20443;-65
2024/04/13 08:12:03;;;;;;;10.07;7.47;;;18.80;71.10;;;;;;6775749;26;20502;-65
2024/04/13 08:15:08;;;;;;;11.30;8.77;;;19.00;70.50;;;;;;6773797;26;20311;-64
2024/04/13 08:18:10;;;;;;;8.60;7.70;;;19.10;70.50;;;;;;6775502;26;20818;-64
2024/04/13 08:21:12;;;;;;;8.70;7.23;;;19.20;70.10;;;;;;6775255;26;20260;-65
2024/04/13 08:24:14;;;;;;;8.47;6.03;;;19.30;69.70;;;;;;6775876;26;20248;-63
2024/04/13 08:27:16;;;;;;;13.07;6.50;;;19.30;69.90;;;;;;6776245;26;20242;-65
2024/04/13 08:30:18;;;;;;;8.30;6.80;;;19.40;69.40;;;;;;6774836;26;20316;-66
2024/04/13 08:33:20;;;;;;;8.03;6.77;;;19.60;69.20;;;;;;6775189;26;20335;-65
2024/04/13 08:36:22;;;;;;;8.03;5.87;;;19.70;68.50;;;;;;6772869;26;20234;-65
2024/04/13 08:39:25;;;;;;;8.13;5.67;;;19.60;68.20;;;;;;6775057;26;20257;-65
2024/04/13 08:42:34;;;;;;;10.93;6.23;;;19.60;68.40;;;;;;6775087;26;20286;-65
2024/04/13 08:45:36;;;;;;;5.60;5.10;;;19.70;68.00;;;;;;6774607;26;20230;-65
2024/04/13 08:48:39;;;;;;;7.53;5.50;;;19.80;67.40;;;;;;6774415;26;20717;-65
2024/04/13 08:51:43;;;;;;;6.80;5.37;;;19.90;66.00;;;;;;6774001;26;20231;-65
2024/04/13 08:54:46;;;;;;;6.10;5.17;;;20.00;65.80;;;;;;6774726;26;20257;-65
2024/04/13 08:57:49;;;;;;;7.60;5.50;;;20.20;64.80;;;;;;6774811;26;20246;-66
2024/04/13 09:00:53;;;;;;;5.87;5.23;;;20.30;64.60;;;;;;6772694;26;20703;-65
2024/04/13 09:03:55;;;;;;;8.07;4.93;;;20.40;64.60;;;;;;6772640;26;20272;-65
2024/04/13 09:06:57;;;;;;;7.13;4.77;;;20.40;64.30;;;;;;6771103;26;20264;-66
2024/04/13 09:10:00;;;;;;;7.77;5.57;;;20.30;64.40;;;;;;6776068;26;20222;-66
2024/04/13 09:13:02;;;;;;;14.63;6.83;;;20.40;64.50;;;;;;6776185;26;20669;-66
2024/04/13 09:16:06;;;;;;;8.53;6.37;;;20.60;64.90;;;;;;6773159;26;20318;-66
2024/04/13 09:19:09;;;;;;;7.90;5.93;;;20.50;63.60;;;;;;6772911;26;20252;-65
2024/04/13 09:22:12;;;;;;;14.30;5.97;;;20.40;64.20;;;;;;6772563;26;20238;-65
2024/04/13 09:25:22;;;;;;;14.17;6.17;;;20.40;63.90;;;;;;6772143;26;20230;-66
2024/04/13 09:28:23;;;;;;;8.60;5.93;;;20.40;63.60;;;;;;6772619;26;20256;-65
2024/04/13 09:31:25;;;;;;;8.63;6.27;;;20.60;64.40;;;;;;6770905;26;20286;-66
2024/04/13 09:34:28;;;;;;;9.90;5.60;;;21.00;63.00;;;;;;6772038;26;20583;-66
2024/04/13 09:37:30;;;;;;;7.37;5.50;;;21.20;61.90;;;;;;6772494;26;20681;-66
2024/04/13 09:40:34;;;;;;;8.40;6.00;;;21.40;61.50;;;;;;6772841;26;20284;-65
2024/04/13 09:43:36;;;;;;;7.73;6.23;;;21.60;61.80;;;;;;6770248;26;20594;-67
2024/04/13 09:46:41;;;;;;;9.80;5.90;;;21.70;61.00;;;;;;6772908;26;20326;-66
2024/04/13 09:49:48;;;;;;;6.90;5.50;;;22.00;60.20;;;;;;6772258;26;20226;-66
2024/04/13 09:52:50;;;;;;;8.70;6.20;;;22.00;59.30;;;;;;6771704;26;20245;-67
2024/04/13 09:55:52;;;;;;;7.80;6.70;;;22.10;59.30;;;;;;6773247;26;20363;-66
2024/04/13 09:58:54;;;;;;;9.80;7.40;;;22.10;59.60;;;;;;6775657;26;20222;-66
2024/04/13 10:01:56;;;;;;;56.43;24.10;;;22.10;59.70;;;;;;6775736;26;20307;-66
2024/04/13 10:04:58;;;;;;;17.50;11.30;;;22.10;59.80;;;;;;6776831;26;20222;-65
2024/04/13 10:08:02;;;;;;;34.23;23.03;;;22.30;59.70;;;;;;6775788;26;20315;-66
2024/04/13 10:11:04;;;;;;;38.07;34.00;;;22.50;59.30;;;;;;6776635;26;20314;-66
2024/04/13 10:14:07;;;;;;;8.97;8.07;;;22.40;59.20;;;;;;6781804;26;20269;-66
2024/04/13 10:17:10;;;;;;;10.77;9.77;;;22.50;58.40;;;;;;6776883;26;20218;-66
2024/04/13 10:20:13;;;;;;;8.17;6.57;;;22.60;58.50;;;;;;6775846;26;20233;-67
2024/04/13 10:23:16;;;;;;;7.30;6.57;;;22.70;57.90;;;;;;6775493;26;20264;-66
2024/04/13 10:26:28;;;;;;;8.53;6.70;;;22.60;57.70;;;;;;6775663;26;20291;-67
2024/04/13 10:29:37;;;;;;;7.27;6.40;;;22.30;57.40;;;;;;6773788;26;20257;-66
2024/04/13 10:32:42;;;;;;;10.27;6.50;;;22.40;57.40;;;;;;6775849;26;20226;-66
2024/04/13 10:35:54;;;;;;;12.07;6.67;;;22.60;57.00;;;;;;6775651;26;20260;-65
2024/04/13 10:38:57;;;;;;;9.50;6.57;;;22.90;56.70;;;;;;6775467;26;20348;-67
2024/04/13 10:42:10;;;;;;;7.70;6.23;;;23.10;56.70;;;;;;6780438;26;20294;-66
2024/04/13 10:45:15;;;;;;;11.50;6.50;;;23.30;56.20;;;;;;6773826;26;20250;-66
2024/04/13 10:48:19;;;;;;;7.80;7.10;;;23.20;55.50;;;;;;6775769;26;20358;-67
2024/04/13 10:51:22;;;;;;;8.77;6.90;;;23.30;56.10;;;;;;6774878;26;20289;-65
2024/04/13 10:54:24;;;;;;;8.70;6.60;;;23.40;55.50;;;;;;6775248;26;20282;-66
2024/04/13 10:57:26;;;;;;;8.63;7.30;;;23.30;55.90;;;;;;6774907;26;20242;-66
2024/04/13 11:00:28;;;;;;;7.17;6.40;;;23.50;55.70;;;;;;6775987;26;20274;-65
2024/04/13 11:03:30;;;;;;;7.37;6.33;;;23.60;54.60;;;;;;6775827;26;20249;-66
2024/04/13 11:06:32;;;;;;;7.63;6.90;;;23.60;54.40;;;;;;6776724;26;20230;-65
2024/04/13 11:09:34;;;;;;;10.87;5.93;;;23.80;54.30;;;;;;6776165;26;20222;-65
2024/04/13 11:12:36;;;;;;;7.10;5.40;;;23.70;53.30;;;;;;6775849;26;20281;-66
2024/04/13 11:15:38;;;;;;;8.43;5.10;;;23.90;52.50;;;;;;6773770;26;20318;-66
2024/04/13 11:18:40;;;;;;;7.57;6.33;;;24.00;52.80;;;;;;6777515;26;20268;-68
2024/04/13 11:21:43;;;;;;;9.93;6.40;;;24.30;53.20;;;;;;6776358;26;20255;-65
2024/04/13 11:24:46;;;;;;;9.73;5.97;;;24.30;51.70;;;;;;6777155;26;20225;-66
2024/04/13 11:27:48;;;;;;;10.43;7.87;;;24.40;52.20;;;;;;6777412;26;20213;-66
2024/04/13 11:30:53;;;;;;;15.80;13.77;;;24.20;52.30;;;;;;6777751;26;20229;-67
2024/04/13 11:33:57;;;;;;;8.60;7.03;;;24.20;53.30;;;;;;6777327;26;20218;-66
2024/04/13 11:37:03;;;;;;;11.47;7.10;;;24.10;53.80;;;;;;6776649;26;20237;-65
2024/04/13 11:40:10;;;;;;;8.00;6.63;;;24.00;53.40;;;;;;6776340;26;20230;-66
2024/04/13 11:43:12;;;;;;;10.23;6.50;;;23.90;53.10;;;;;;6774376;26;20656;-66
2024/04/13 11:46:17;;;;;;;6.30;5.27;;;24.00;53.70;;;;;;6776032;26;20226;-66
2024/04/13 11:49:19;;;;;;;6.10;5.50;;;24.10;53.30;;;;;;6775976;26;20238;-66
2024/04/13 11:52:21;;;;;;;8.50;5.73;;;24.30;53.10;;;;;;6776691;26;20246;-65
2024/04/13 11:55:24;;;;;;;7.37;5.77;;;24.50;52.20;;;;;;6781863;26;20256;-66
2024/04/13 11:58:26;;;;;;;7.80;6.10;;;24.60;52.00;;;;;;6778562;26;20222;-66
2024/04/13 12:01:28;;;;;;;8.70;6.70;;;24.50;52.20;;;;;;6785517;26;20251;-66
2024/04/13 12:04:29;;;;;;;7.80;6.33;;;24.60;52.50;;;;;;6785416;26;20264;-65
2024/04/13 12:07:32;;;;;;;7.47;6.60;;;24.60;52.00;;;;;;6782763;26;20338;-66
2024/04/13 12:10:34;;;;;;;6.63;5.70;;;24.20;52.30;;;;;;6780721;26;20641;-66
2024/04/13 12:13:37;;;;;;;6.53;5.03;;;24.30;53.30;;;;;;6777105;26;20233;-66
2024/04/13 12:16:39;;;;;;;5.93;5.23;;;24.30;51.50;;;;;;6781864;26;20221;-65
2024/04/13 12:19:41;;;;;;;10.43;4.90;;;24.50;52.00;;;;;;6778293;26;20237;-65
2024/04/13 12:22:42;;;;;;;6.60;5.20;;;24.60;51.90;;;;;;6776053;26;20255;-65
2024/04/13 12:25:45;;;;;;;5.13;4.63;;;24.70;52.10;;;;;;6775564;26;20226;-65
2024/04/13 12:28:47;;;;;;;6.00;5.40;;;24.80;50.50;;;;;;6776313;26;20233;-65
2024/04/13 12:31:48;;;;;;;8.50;5.43;;;24.90;50.60;;;;;;6776661;26;20241;-65
2024/04/13 12:34:50;;;;;;;6.50;4.83;;;25.00;51.10;;;;;;6775165;26;20268;-66
2024/04/13 12:37:53;;;;;;;7.37;5.10;;;25.10;50.80;;;;;;6775953;26;20237;-67
2024/04/13 12:40:55;;;;;;;8.20;5.00;;;25.10;50.20;;;;;;6776131;26;20276;-65
2024/04/13 12:43:56;;;;;;;5.40;4.77;;;25.00;50.80;;;;;;6777256;26;20517;-66
2024/04/13 12:46:59;;;;;;;5.33;4.37;;;25.00;50.70;;;;;;6776830;26;20297;-65
2024/04/13 12:50:02;;;;;;;6.10;3.93;;;25.10;51.00;;;;;;6774255;26;20233;-66
2024/04/13 12:53:04;;;;;;;6.00;3.53;;;25.40;49.40;;;;;;6775742;26;20254;-66
2024/04/13 12:56:07;;;;;;;7.20;4.23;;;25.50;48.70;;;;;;6774703;26;20249;-66
2024/04/13 12:59:11;;;;;;;6.23;4.03;;;25.70;48.30;;;;;;6775174;26;20229;-66
2024/04/13 13:02:13;;;;;;;4.93;3.93;;;25.80;48.00;;;;;;6775029;26;20262;-66
2024/04/13 13:05:16;;;;;;;4.37;3.70;;;26.00;47.30;;;;;;6775141;26;20278;-66
2024/04/13 13:08:18;;;;;;;3.97;3.57;;;26.10;47.70;;;;;;6774412;26;20222;-66
2024/04/13 13:11:19;;;;;;;3.90;3.27;;;26.20;45.40;;;;;;6774741;26;20231;-66
2024/04/13 13:14:21;;;;;;;4.57;3.70;;;26.20;45.10;;;;;;6776285;26;20256;-66
2024/04/13 13:17:23;;;;;;;3.93;3.53;;;26.30;45.80;;;;;;6791120;26;20234;-66
2024/04/13 13:20:25;;;;;;;4.63;3.50;;;26.30;45.50;;;;;;6791159;26;20237;-66
2024/04/13 13:23:27;;;;;;;3.60;3.30;;;26.10;46.10;;;;;;6785326;26;20264;-65
2024/04/13 13:26:29;;;;;;;3.83;3.40;;;26.10;45.00;;;;;;6783569;26;20221;-65
2024/04/13 13:29:31;;;;;;;4.17;3.50;;;26.10;45.00;;;;;;6782699;26;20293;-65
2024/04/13 13:32:33;;;;;;;4.70;3.90;;;26.10;45.80;;;;;;6777751;26;20235;-65
2024/04/13 13:35:35;;;;;;;5.60;3.20;;;25.90;46.00;;;;;;6775833;26;20306;-65
2024/04/13 13:38:37;;;;;;;5.57;3.70;;;26.00;45.50;;;;;;6774879;26;20311;-66
2024/04/13 13:41:39;;;;;;;4.37;3.77;;;26.00;45.80;;;;;;6784210;26;20257;-66
2024/04/13 13:44:50;;;;;;;5.63;3.97;;;26.10;45.90;;;;;;6779341;26;20633;-66
2024/04/13 13:47:52;;;;;;;4.13;3.80;;;26.10;45.80;;;;;;6776611;26;20310;-67
2024/04/13 13:50:54;;;;;;;3.93;3.63;;;26.10;46.10;;;;;;6777840;26;20256;-67
2024/04/13 13:53:56;;;;;;;4.40;4.00;;;26.00;46.40;;;;;;6777150;26;20245;-67
2024/04/13 13:56:58;;;;;;;9.33;4.03;;;25.90;46.60;;;;;;6776734;26;20248;-65
2024/04/13 13:59:59;;;;;;;5.13;3.93;;;25.80;47.10;;;;;;6778275;26;20286;-66
2024/04/13 14:03:02;;;;;;;4.20;3.80;;;25.90;47.50;;;;;;6778435;26;20214;-66
2024/04/13 14:06:05;;;;;;;4.80;4.40;;;26.00;47.40;;;;;;6778288;26;20251;-66
2024/04/13 14:09:07;;;;;;;4.90;4.10;;;26.20;46.60;;;;;;6775404;26;20233;-66
2024/04/13 14:12:09;;;;;;;4.43;4.00;;;26.30;46.80;;;;;;6776855;26;20338;-66
2024/04/13 14:15:11;;;;;;;4.47;3.93;;;26.20;47.20;;;;;;6776873;26;20226;-67
2024/04/13 14:18:13;;;;;;;4.70;3.80;;;26.30;46.60;;;;;;6777676;26;20326;-68
2024/04/13 14:21:15;;;;;;;4.47;4.07;;;26.50;46.60;;;;;;6777301;26;20225;-67
2024/04/13 14:24:20;;;;;;;4.37;3.97;;;26.70;46.50;;;;;;6777669;26;20226;-67
2024/04/13 14:27:22;;;;;;;5.73;3.90;;;26.80;45.80;;;;;;6777147;26;20229;-67
2024/04/13 14:30:24;;;;;;;5.10;4.00;;;26.90;45.40;;;;;;6776543;26;20221;-67
2024/04/13 14:33:26;;;;;;;5.33;3.93;;;27.00;45.60;;;;;;6776446;26;20265;-66
2024/04/13 14:36:28;;;;;;;5.17;3.93;;;27.10;46.40;;;;;;6776235;26;20225;-67
2024/04/13 14:39:30;;;;;;;4.83;4.20;;;27.20;45.50;;;;;;6776734;26;20540;-66
2024/04/13 14:42:32;;;;;;;6.40;4.27;;;27.10;45.00;;;;;;6776045;26;20257;-66
2024/04/13 14:45:34;;;;;;;4.57;4.07;;;27.10;45.50;;;;;;6776511;26;20256;-67
2024/04/13 14:48:36;;;;;;;5.27;4.10;;;27.10;45.40;;;;;;6776223;26;20218;-66
2024/04/13 14:51:38;;;;;;;5.23;4.70;;;27.00;45.90;;;;;;6776156;26;20249;-66
2024/04/13 14:54:40;;;;;;;5.13;4.03;;;27.00;46.80;;;;;;6777051;26;20256;-66
2024/04/13 14:57:43;;;;;;;4.50;4.10;;;26.90;46.20;;;;;;6777626;26;20681;-66
2024/04/13 15:00:45;;;;;;;4.23;3.83;;;26.90;47.20;;;;;;6777945;26;20221;-66
2024/04/13 15:03:47;;;;;;;5.70;4.33;;;26.90;46.90;;;;;;6777712;26;20260;-66
2024/04/13 15:06:49;;;;;;;6.00;4.13;;;27.00;46.60;;;;;;6777122;26;20247;-66
2024/04/13 15:09:52;;;;;;;5.03;4.47;;;26.80;46.10;;;;;;6776341;26;20237;-65
2024/04/13 15:12:54;;;;;;;7.53;4.77;;;26.70;47.00;;;;;;6777198;26;20251;-66
2024/04/13 15:15:56;;;;;;;5.03;4.63;;;26.70;47.00;;;;;;6776954;26;20409;-66
2024/04/13 15:18:59;;;;;;;6.80;4.50;;;26.70;47.50;;;;;;6776929;26;20631;-65
2024/04/13 15:22:02;;;;;;;6.57;4.23;;;26.60;47.40;;;;;;6776990;26;20255;-67
2024/04/13 15:25:04;;;;;;;6.33;4.10;;;26.50;47.90;;;;;;6776832;26;20251;-68
2024/04/13 15:28:09;;;;;;;3.80;3.50;;;26.60;48.30;;;;;;6776880;26;20581;-65
2024/04/13 15:31:11;;;;;;;5.40;4.00;;;26.60;48.00;;;;;;6776452;26;20318;-66
2024/04/13 15:34:13;;;;;;;5.10;4.60;;;26.60;47.60;;;;;;6775338;26;20225;-67
2024/04/13 15:37:16;;;;;;;7.10;5.03;;;26.70;47.10;;;;;;6775785;26;20314;-66
2024/04/13 15:40:18;;;;;;;15.87;14.37;;;26.80;47.70;;;;;;6776560;26;20240;-67
2024/04/13 15:43:21;;;;;;;10.33;9.07;;;27.00;47.60;;;;;;6775559;26;20694;-66
2024/04/13 15:46:25;;;;;;;7.07;6.47;;;27.00;47.00;;;;;;6774873;26;20666;-66